createdAt,value
2019-04-07T00:00:53.466Z,56.20
2019-04-07T00:03:23.039Z,55.90
2019-04-07T00:05:51.635Z,55.53
2019-04-07T00:08:20.535Z,56.17
2019-04-07T00:10:49.136Z,53.07
2019-04-07T00:13:18.386Z,54.10
2019-04-07T00:15:46.967Z,54.07
2019-04-07T00:18:15.895Z,54.90
2019-04-07T00:20:44.787Z,54.90
2019-04-07T00:23:14.129Z,53.80
2019-04-07T00:25:42.996Z,55.13
2019-04-07T00:28:11.867Z,55.03
2019-04-07T00:30:40.493Z,54.17
2019-04-07T00:33:09.534Z,54.67
2019-04-07T00:35:38.917Z,53.60
2019-04-07T00:38:07.493Z,52.77
2019-04-07T00:40:37.193Z,52.80
2019-04-07T00:43:06.265Z,53.20
2019-04-07T00:45:35.395Z,54.87
2019-04-07T00:48:04.195Z,63.80
2019-04-07T00:50:33.293Z,54.97
2019-04-07T00:53:02.104Z,53.43
2019-04-07T00:55:31.057Z,53.77
2019-04-07T00:58:00.428Z,54.83
2019-04-07T01:00:29.117Z,52.47
2019-04-07T01:02:58.291Z,51.93
2019-04-07T01:05:35.394Z,53.43
2019-04-07T01:07:56.410Z,51.60
2019-04-07T01:10:24.755Z,52.63
2019-04-07T01:12:54.003Z,52.80
2019-04-07T01:15:23.046Z,53.20
2019-04-07T01:17:51.464Z,51.13
2019-04-07T01:20:20.667Z,52.20
2019-04-07T01:22:49.417Z,52.87
2019-04-07T01:25:18.251Z,53.50
2019-04-07T01:27:47.175Z,55.63
2019-04-07T01:30:16.120Z,55.43
2019-04-07T01:32:45.533Z,55.53
2019-04-07T01:35:14.615Z,56.47
2019-04-07T01:37:42.961Z,55.23
2019-04-07T01:40:11.836Z,54.33
2019-04-07T01:42:56.580Z,58.17
2019-04-07T01:45:41.291Z,58.17
2019-04-07T01:48:44.760Z,58.33
2019-04-07T01:51:35.056Z,57.77
2019-04-07T01:54:21.820Z,58.53
2019-04-07T01:57:09.411Z,56.10
2019-04-07T01:59:56.359Z,59.07
2019-04-07T02:02:50.023Z,56.50
2019-04-07T02:05:34.050Z,57.40
2019-04-07T02:08:09.406Z,55.23
2019-04-07T02:11:02.853Z,56.03
2019-04-07T02:13:53.876Z,54.57
2019-04-07T02:16:45.602Z,55.80
2019-04-07T02:19:37.066Z,67.78
2019-04-07T02:22:16.264Z,55.30
2019-04-07T02:25:07.378Z,67.50
2019-04-07T02:27:49.553Z,56.50
2019-04-07T02:30:52.272Z,54.90
2019-04-07T02:33:52.410Z,53.73
2019-04-07T02:36:43.211Z,53.43
2019-04-07T02:39:25.034Z,52.47
2019-04-07T02:42:13.086Z,53.60
2019-04-07T02:45:01.392Z,70.57
2019-04-07T02:47:47.581Z,52.90
2019-04-07T02:50:24.112Z,55.80
2019-04-07T02:52:59.553Z,55.67
2019-04-07T02:55:48.333Z,55.90
2019-04-07T02:58:38.191Z,71.35
2019-04-07T03:01:18.043Z,59.03
2019-04-07T03:04:03.824Z,58.80
2019-04-07T03:06:58.690Z,54.93
2019-04-07T03:09:51.849Z,56.00
2019-04-07T03:12:43.374Z,52.10
2019-04-07T03:15:34.253Z,53.90
2019-04-07T03:18:26.539Z,49.77
2019-04-07T03:21:01.035Z,54.57
2019-04-07T03:23:57.168Z,53.87
2019-04-07T03:26:44.488Z,52.90
2019-04-07T03:29:49.762Z,56.27
2019-04-07T03:32:35.441Z,56.57
2019-04-07T03:35:17.278Z,54.63
2019-04-07T03:38:15.014Z,55.87
2019-04-07T03:41:09.707Z,54.53
2019-04-07T03:44:03.323Z,55.73
2019-04-07T03:46:43.118Z,54.13
2019-04-07T03:49:37.001Z,55.87
2019-04-07T03:52:14.088Z,55.10
2019-04-07T03:55:07.567Z,54.23
2019-04-07T03:57:58.267Z,55.00
2019-04-07T04:01:37.132Z,54.27
2019-04-07T04:04:30.235Z,51.20
2019-04-07T04:07:30.958Z,53.13
2019-04-07T04:10:04.220Z,52.63
2019-04-07T04:12:37.651Z,49.87
2019-04-07T04:15:16.816Z,52.40
2019-04-07T04:17:45.723Z,64.92
2019-04-07T04:20:14.738Z,66.28
2019-04-07T04:22:43.152Z,57.67
2019-04-07T04:25:12.623Z,54.87
2019-04-07T04:27:40.694Z,54.27
2019-04-07T04:30:10.783Z,55.10
2019-04-07T04:32:39.427Z,53.80
2019-04-07T04:35:08.398Z,54.97
2019-04-07T04:37:44.191Z,54.10
2019-04-07T04:40:05.981Z,50.67
2019-04-07T04:42:35.787Z,53.43
2019-04-07T04:45:04.391Z,54.10
2019-04-07T04:47:33.918Z,52.53
2019-04-07T04:50:02.438Z,53.80
2019-04-07T04:52:31.752Z,53.03
2019-04-07T04:55:00.601Z,53.67
2019-04-07T04:57:28.766Z,54.17
2019-04-07T04:59:58.011Z,53.33
2019-04-07T05:02:27.534Z,54.20
2019-04-07T05:04:56.128Z,54.53
2019-04-07T05:07:24.532Z,54.47
2019-04-07T05:09:55.341Z,53.87
2019-04-07T05:12:22.167Z,55.10
2019-04-07T05:14:51.092Z,52.57
2019-04-07T05:17:20.011Z,54.40
2019-04-07T05:19:48.926Z,52.87
2019-04-07T05:22:17.964Z,53.33
2019-04-07T05:24:46.783Z,65.20
2019-04-07T05:27:16.438Z,55.67
2019-04-07T05:29:44.760Z,54.33
2019-04-07T05:32:13.613Z,52.87
2019-04-07T05:34:42.512Z,52.17
2019-04-07T05:37:11.511Z,51.50
2019-04-07T05:39:41.113Z,52.37
2019-04-07T05:42:09.629Z,52.37
2019-04-07T05:44:38.579Z,48.80
2019-04-07T05:47:10.847Z,52.77
2019-04-07T05:49:36.345Z,52.03
2019-04-07T05:52:06.027Z,52.57
2019-04-07T05:54:34.187Z,51.97
2019-04-07T05:57:03.106Z,53.77
2019-04-07T05:59:32.038Z,53.43
2019-04-07T06:02:02.577Z,53.50
2019-04-07T06:04:30.340Z,51.07
2019-04-07T06:06:59.117Z,61.73
2019-04-07T06:09:28.086Z,52.13
2019-04-07T06:11:56.694Z,52.03
2019-04-07T06:14:25.957Z,49.30
2019-04-07T06:16:55.716Z,46.20
2019-04-07T06:19:23.865Z,47.27
2019-04-07T06:21:52.701Z,45.40
2019-04-07T06:24:22.438Z,45.63
2019-04-07T06:26:50.440Z,45.90
2019-04-07T06:29:19.859Z,44.53
2019-04-07T06:31:48.307Z,44.53
2019-04-07T06:34:17.225Z,44.53
2019-04-07T06:36:48.360Z,43.90
2019-04-07T06:39:17.384Z,45.53
2019-04-07T06:41:44.359Z,42.93
2019-04-07T06:44:16.554Z,43.50
2019-04-07T06:46:47.988Z,45.43
2019-04-07T06:49:22.834Z,45.60
2019-04-07T06:52:10.502Z,41.60
2019-04-07T06:54:44.899Z,42.20
2019-04-07T06:57:31.197Z,40.83
2019-04-07T07:00:20.595Z,41.57
2019-04-07T07:03:11.777Z,39.63
2019-04-07T07:05:53.670Z,40.67
2019-04-07T07:08:48.403Z,41.45
2019-04-07T07:11:47.139Z,39.27
2019-04-07T07:14:47.457Z,38.95
2019-04-07T07:17:36.526Z,39.45
2019-04-07T07:20:21.762Z,39.27
2019-04-07T07:23:00.469Z,38.83
2019-04-07T07:25:29.829Z,45.03
2019-04-07T07:27:57.063Z,44.63
2019-04-07T07:30:26.029Z,38.17
2019-04-07T07:32:55.301Z,40.20
2019-04-07T07:35:24.367Z,37.48
2019-04-07T07:37:53.671Z,40.85
2019-04-07T07:40:22.181Z,37.83
2019-04-07T07:42:51.097Z,36.08
2019-04-07T07:45:19.295Z,34.95
2019-04-07T07:47:51.341Z,33.35
2019-04-07T07:50:17.850Z,30.43
2019-04-07T07:52:49.237Z,29.00
2019-04-07T07:55:15.099Z,30.32
2019-04-07T07:57:43.884Z,29.42
2019-04-07T08:00:12.869Z,27.58
2019-04-07T08:02:41.769Z,30.23
2019-04-07T08:05:11.435Z,29.27
2019-04-07T08:07:43.646Z,28.77
2019-04-07T08:10:09.505Z,29.70
2019-04-07T08:12:37.535Z,29.42
2019-04-07T08:15:07.053Z,27.60
2019-04-07T08:17:35.682Z,28.90
2019-04-07T08:20:05.590Z,28.60
2019-04-07T08:22:41.346Z,28.23
2019-04-07T08:25:02.657Z,28.77
2019-04-07T08:27:32.273Z,28.20
2019-04-07T08:30:00.519Z,29.52
2019-04-07T08:32:31.992Z,27.73
2019-04-07T08:35:02.729Z,28.60
2019-04-07T08:37:27.217Z,28.38
2019-04-07T08:39:57.908Z,27.58
2019-04-07T08:42:25.253Z,28.47
2019-04-07T08:44:57.232Z,29.07
2019-04-07T08:47:23.453Z,27.02
2019-04-07T08:49:55.370Z,29.45
2019-04-07T08:52:21.483Z,27.22
2019-04-07T08:54:52.672Z,28.20
2019-04-07T08:57:22.587Z,28.80
2019-04-07T08:59:51.492Z,29.30
2019-04-07T09:02:22.416Z,29.57
2019-04-07T09:04:51.290Z,27.60
2019-04-07T09:07:23.355Z,27.13
2019-04-07T09:09:51.311Z,26.80
2019-04-07T09:12:19.739Z,29.72
2019-04-07T09:14:51.864Z,28.38
2019-04-07T09:17:44.954Z,27.85
2019-04-07T09:20:31.350Z,27.48
2019-04-07T09:23:17.647Z,27.35
2019-04-07T09:26:05.441Z,26.48
2019-04-07T09:28:41.958Z,24.70
2019-04-07T09:31:18.666Z,26.20
2019-04-07T09:33:56.263Z,26.25
2019-04-07T09:36:35.309Z,24.32
2019-04-07T09:39:39.471Z,23.52
2019-04-07T09:42:10.224Z,24.95
2019-04-07T09:44:57.475Z,23.95
2019-04-07T09:47:47.772Z,22.93
2019-04-07T09:50:36.487Z,22.73
2019-04-07T09:53:37.061Z,21.12
2019-04-07T09:56:22.774Z,23.27
2019-04-07T09:59:16.951Z,21.25
2019-04-07T10:02:16.785Z,20.43
2019-04-07T10:05:06.820Z,22.42
2019-04-07T10:07:56.775Z,22.32
2019-04-07T10:10:52.645Z,22.45
2019-04-07T10:13:53.128Z,23.87
2019-04-07T10:16:41.739Z,23.52
2019-04-07T10:19:47.925Z,22.75
2019-04-07T10:22:36.042Z,22.52
2019-04-07T10:25:29.270Z,21.77
2019-04-07T10:28:10.561Z,22.73
2019-04-07T10:30:56.610Z,21.87
2019-04-07T10:33:49.357Z,20.90
2019-04-07T10:36:25.287Z,21.23
2019-04-07T10:39:26.423Z,22.32
2019-04-07T10:42:13.744Z,21.23
2019-04-07T10:44:55.184Z,20.72
2019-04-07T10:47:33.632Z,19.80
2019-04-07T10:50:18.219Z,19.80
2019-04-07T10:53:14.339Z,21.33
2019-04-07T10:55:55.021Z,21.05
2019-04-07T10:58:46.155Z,19.62
2019-04-07T11:01:22.203Z,18.27
2019-04-07T11:04:09.463Z,18.40
2019-04-07T11:06:59.101Z,17.60
2019-04-07T11:09:53.082Z,17.57
2019-04-07T11:12:41.202Z,17.12
2019-04-07T11:15:37.047Z,17.42
2019-04-07T11:18:40.311Z,16.97
2019-04-07T11:21:39.267Z,16.10
2019-04-07T11:24:17.718Z,15.78
2019-04-07T11:27:09.259Z,15.95
2019-04-07T11:29:51.848Z,15.68
2019-04-07T11:32:41.449Z,15.55
2019-04-07T11:35:40.187Z,14.95
2019-04-07T11:38:29.201Z,16.05
2019-04-07T11:41:23.491Z,15.78
2019-04-07T11:44:14.995Z,15.50
2019-04-07T11:46:53.307Z,17.40
2019-04-07T11:49:49.679Z,16.57
2019-04-07T11:52:27.836Z,16.67
2019-04-07T11:55:26.108Z,17.30
2019-04-07T11:58:11.630Z,16.17
2019-04-07T12:00:59.258Z,16.85
2019-04-07T12:03:35.826Z,15.93
2019-04-07T12:06:28.114Z,16.27
2019-04-07T12:09:14.468Z,17.85
2019-04-07T12:12:02.567Z,17.32
2019-04-07T12:14:53.146Z,16.85
2019-04-07T12:17:41.486Z,17.42
2019-04-07T12:20:33.498Z,19.17
2019-04-07T12:23:20.983Z,21.20
2019-04-07T12:26:10.340Z,15.68
2019-04-07T12:29:04.037Z,15.85
2019-04-07T12:31:51.026Z,16.73
2019-04-07T12:34:34.979Z,17.67
2019-04-07T12:37:14.402Z,16.62
2019-04-07T12:40:05.420Z,16.48
2019-04-07T12:43:02.515Z,16.07
2019-04-07T12:45:46.619Z,16.52
2019-04-07T12:48:43.553Z,17.12
2019-04-07T12:51:40.625Z,18.65
2019-04-07T12:54:27.782Z,17.32
2019-04-07T12:57:17.023Z,17.42
2019-04-07T12:59:58.281Z,17.80
2019-04-07T13:02:47.487Z,17.67
2019-04-07T13:05:35.630Z,16.10
2019-04-07T13:08:20.057Z,15.90
2019-04-07T13:11:08.845Z,17.92
2019-04-07T13:13:50.534Z,17.70
2019-04-07T13:16:32.189Z,18.90
2019-04-07T13:19:15.590Z,17.45
2019-04-07T13:22:21.589Z,17.12
2019-04-07T13:25:09.097Z,16.75
2019-04-07T13:28:00.905Z,17.75
2019-04-07T13:30:46.949Z,16.82
2019-04-07T13:33:29.581Z,16.02
2019-04-07T13:36:17.644Z,14.95
2019-04-07T13:39:00.917Z,14.83
2019-04-07T13:41:42.964Z,17.00
2019-04-07T13:44:24.216Z,16.55
2019-04-07T13:47:10.570Z,18.55
2019-04-07T13:49:57.350Z,17.07
2019-04-07T13:52:59.097Z,15.72
2019-04-07T13:55:45.143Z,16.32
2019-04-07T13:58:33.198Z,16.35
2019-04-07T14:01:11.473Z,17.27
2019-04-07T14:04:01.437Z,16.62
2019-04-07T14:06:35.111Z,15.85
2019-04-07T14:09:42.647Z,15.70
2019-04-07T14:12:34.550Z,17.07
2019-04-07T14:15:15.883Z,16.65
2019-04-07T14:18:03.712Z,17.70
2019-04-07T14:20:47.528Z,16.32
2019-04-07T14:23:35.396Z,15.90
2019-04-07T14:26:35.643Z,17.98
2019-04-07T14:29:28.435Z,16.25
2019-04-07T14:32:18.843Z,16.15
2019-04-07T14:35:09.369Z,16.35
2019-04-07T14:38:03.783Z,15.78
2019-04-07T14:40:42.203Z,15.63
2019-04-07T14:43:35.124Z,16.30
2019-04-07T14:46:12.105Z,17.62
2019-04-07T14:49:00.024Z,17.75
2019-04-07T14:51:47.138Z,18.05
2019-04-07T14:54:43.999Z,17.05
2019-04-07T14:57:22.435Z,16.97
2019-04-07T15:00:07.701Z,16.62
2019-04-07T15:02:36.598Z,18.32
2019-04-07T15:05:14.876Z,16.93
2019-04-07T15:08:06.449Z,16.07
2019-04-07T15:10:41.915Z,17.20
2019-04-07T15:13:17.109Z,15.60
2019-04-07T15:15:50.158Z,14.47
2019-04-07T15:18:17.538Z,15.00
2019-04-07T15:20:46.292Z,15.85
2019-04-07T15:23:16.521Z,16.85
2019-04-07T15:25:47.016Z,16.15
2019-04-07T15:28:15.361Z,15.38
2019-04-07T15:30:47.038Z,13.15
2019-04-07T15:33:16.076Z,14.35
2019-04-07T15:35:48.693Z,14.23
2019-04-07T15:38:15.282Z,15.60
2019-04-07T15:40:44.755Z,15.55
2019-04-07T15:43:12.604Z,15.18
2019-04-07T15:45:46.946Z,14.30
2019-04-07T15:48:17.057Z,15.20
2019-04-07T15:50:45.493Z,16.15
2019-04-07T15:53:15.577Z,15.28
2019-04-07T15:55:50.990Z,14.40
2019-04-07T15:58:13.513Z,15.55
2019-04-07T16:00:42.347Z,15.23
2019-04-07T16:03:14.340Z,14.87
2019-04-07T16:05:43.970Z,14.28
2019-04-07T16:08:11.588Z,14.55
2019-04-07T16:10:39.184Z,14.78
2019-04-07T16:13:08.902Z,15.70
2019-04-07T16:15:44.898Z,16.00
2019-04-07T16:18:12.632Z,15.70
2019-04-07T16:20:41.640Z,15.55
2019-04-07T16:23:10.867Z,15.78
2019-04-07T16:25:40.842Z,16.40
2019-04-07T16:28:14.466Z,16.77
2019-04-07T16:30:40.832Z,16.70
2019-04-07T16:33:10.120Z,16.93
2019-04-07T16:35:39.833Z,15.90
2019-04-07T16:38:08.436Z,16.82
2019-04-07T16:40:40.459Z,17.70
2019-04-07T16:43:13.343Z,16.82
2019-04-07T16:45:36.659Z,17.40
2019-04-07T16:48:06.474Z,17.65
2019-04-07T16:50:33.569Z,17.42
2019-04-07T16:53:04.393Z,17.40
2019-04-07T16:55:33.653Z,16.90
2019-04-07T16:58:03.329Z,17.35
2019-04-07T17:00:32.371Z,16.77
2019-04-07T17:03:01.280Z,16.57
2019-04-07T17:05:30.150Z,16.80
2019-04-07T17:07:58.291Z,16.40
2019-04-07T17:10:30.987Z,17.67
2019-04-07T17:12:56.851Z,16.00
2019-04-07T17:15:25.061Z,15.85
2019-04-07T17:17:54.661Z,16.97
2019-04-07T17:20:25.903Z,15.68
2019-04-07T17:22:51.809Z,15.88
2019-04-07T17:25:21.627Z,14.80
2019-04-07T17:27:49.833Z,15.32
2019-04-07T17:30:18.564Z,14.93
2019-04-07T17:32:50.081Z,14.53
2019-04-07T17:35:17.519Z,15.30
2019-04-07T17:37:46.164Z,14.35
2019-04-07T17:40:15.794Z,13.48
2019-04-07T17:42:45.063Z,13.22
2019-04-07T17:45:43.728Z,13.98
2019-04-07T17:48:37.522Z,12.40
2019-04-07T17:51:27.564Z,12.93
2019-04-07T17:54:19.505Z,13.18
2019-04-07T17:56:49.697Z,12.82
2019-04-07T17:59:50.401Z,12.15
2019-04-07T18:02:33.869Z,14.07
2019-04-07T18:05:10.648Z,12.93
2019-04-07T18:08:16.575Z,12.82
2019-04-07T18:10:57.860Z,12.98
2019-04-07T18:13:42.228Z,12.68
2019-04-07T18:16:21.319Z,13.22
2019-04-07T18:19:25.175Z,12.43
2019-04-07T18:22:10.629Z,12.63
2019-04-07T18:24:53.551Z,12.63
2019-04-07T18:27:29.683Z,12.88
2019-04-07T18:30:23.494Z,13.30
2019-04-07T18:33:12.937Z,13.13
2019-04-07T18:36:05.666Z,13.07
2019-04-07T18:39:10.200Z,13.30
2019-04-07T18:41:57.221Z,13.13
2019-04-07T18:44:44.426Z,13.03
2019-04-07T18:47:30.237Z,13.17
2019-04-07T18:50:12.963Z,13.43
2019-04-07T18:52:54.503Z,13.40
2019-04-07T18:55:46.447Z,12.57
2019-04-07T18:58:35.724Z,12.47
2019-04-07T19:01:22.430Z,12.80
2019-04-07T19:04:12.870Z,12.40
2019-04-07T19:06:57.945Z,13.07
2019-04-07T19:09:50.832Z,12.97
2019-04-07T19:13:02.588Z,12.90
2019-04-07T19:15:26.101Z,13.00
2019-04-07T19:18:26.059Z,14.63
2019-04-07T19:21:13.773Z,13.80
2019-04-07T19:23:51.397Z,14.50
2019-04-07T19:26:39.431Z,13.07
2019-04-07T19:29:33.723Z,14.57
2019-04-07T19:32:33.397Z,12.37
2019-04-07T19:35:21.782Z,13.83
2019-04-07T19:38:12.511Z,12.90
2019-04-07T19:41:03.327Z,13.10
2019-04-07T19:43:44.693Z,13.03
2019-04-07T19:46:35.032Z,13.60
2019-04-07T19:49:25.850Z,13.00
2019-04-07T19:52:25.744Z,12.63
2019-04-07T19:55:25.859Z,13.37
2019-04-07T19:58:09.783Z,13.53
2019-04-07T20:01:03.383Z,14.10
2019-04-07T20:03:49.592Z,13.17
2019-04-07T20:06:39.809Z,14.33
2019-04-07T20:09:25.755Z,14.27
2019-04-07T20:12:04.289Z,13.50
2019-04-07T20:14:58.571Z,13.73
2019-04-07T20:17:37.493Z,15.00
2019-04-07T20:20:19.497Z,13.90
2019-04-07T20:23:10.661Z,14.23
2019-04-07T20:25:49.261Z,14.03
2019-04-07T20:28:30.397Z,13.43
2019-04-07T20:31:19.447Z,14.57
2019-04-07T20:33:51.842Z,14.13
2019-04-07T20:36:48.677Z,15.60
2019-04-07T20:39:36.595Z,14.70
2019-04-07T20:42:23.613Z,13.97
2019-04-07T20:45:18.806Z,14.87
2019-04-07T20:48:06.009Z,14.60
2019-04-07T20:51:00.490Z,15.00
2019-04-07T20:53:40.824Z,14.63
2019-04-07T20:56:27.160Z,14.50
2019-04-07T20:59:13.929Z,15.33
2019-04-07T21:02:08.616Z,14.73
2019-04-07T21:04:53.140Z,14.93
2019-04-07T21:07:29.749Z,15.47
2019-04-07T21:10:24.932Z,15.03
2019-04-07T21:13:00.319Z,15.50
2019-04-07T21:15:47.777Z,16.03
2019-04-07T21:18:35.902Z,15.60
2019-04-07T21:21:13.881Z,15.97
2019-04-07T21:24:00.279Z,15.90
2019-04-07T21:26:49.112Z,16.10
2019-04-07T21:29:30.247Z,15.77
2019-04-07T21:32:21.581Z,16.30
2019-04-07T21:35:10.782Z,15.67
2019-04-07T21:37:58.324Z,14.73
2019-04-07T21:40:51.640Z,16.07
2019-04-07T21:43:55.486Z,15.60
2019-04-07T21:46:30.999Z,15.67
2019-04-07T21:49:24.590Z,17.45
2019-04-07T21:52:04.567Z,15.27
2019-04-07T21:54:51.444Z,15.33
2019-04-07T21:57:37.899Z,15.00
2019-04-07T22:00:34.957Z,15.13
2019-04-07T22:03:40.885Z,15.33
2019-04-07T22:06:17.720Z,15.60
2019-04-07T22:08:52.821Z,15.20
2019-04-07T22:11:25.364Z,16.00
2019-04-07T22:13:51.246Z,15.57
2019-04-07T22:16:22.122Z,16.30
2019-04-07T22:18:49.111Z,15.17
2019-04-07T22:21:17.407Z,16.37
2019-04-07T22:23:46.457Z,16.67
2019-04-07T22:26:17.655Z,17.37
2019-04-07T22:28:44.991Z,16.87
2019-04-07T22:31:15.364Z,17.07
2019-04-07T22:33:42.603Z,16.60
2019-04-07T22:36:14.177Z,16.73
2019-04-07T22:38:41.137Z,15.10
2019-04-07T22:41:10.078Z,19.25
2019-04-07T22:43:39.209Z,17.40
2019-04-07T22:46:16.391Z,17.17
2019-04-07T22:48:36.466Z,17.50
2019-04-07T22:51:10.991Z,16.63
2019-04-07T22:53:34.944Z,16.87
2019-04-07T22:56:06.363Z,17.23
2019-04-07T22:58:31.972Z,17.17
2019-04-07T23:01:00.885Z,17.17
2019-04-07T23:03:29.810Z,17.20
2019-04-07T23:05:58.776Z,16.70
2019-04-07T23:08:28.516Z,17.33
2019-04-07T23:10:56.607Z,16.70
2019-04-07T23:13:25.851Z,17.40
2019-04-07T23:16:05.874Z,17.03
2019-04-07T23:18:24.203Z,16.33
2019-04-07T23:20:52.275Z,16.47
2019-04-07T23:23:21.800Z,17.37
2019-04-07T23:25:50.327Z,17.03
2019-04-07T23:28:18.993Z,19.07
2019-04-07T23:30:47.916Z,17.67
2019-04-07T23:33:16.843Z,18.42
2019-04-07T23:35:45.742Z,18.00
2019-04-07T23:38:15.519Z,17.97
2019-04-07T23:40:43.571Z,16.43
2019-04-07T23:43:13.207Z,17.33
2019-04-07T23:45:41.975Z,17.27
2019-04-07T23:48:10.468Z,17.10
2019-04-07T23:50:39.283Z,17.37
2019-04-07T23:53:44.975Z,17.27
2019-04-07T23:56:13.488Z,17.17
2019-04-07T23:58:42.405Z,17.03
